Time;durP1;ratioP1;P1;durP2;ratioP2;P2;SDS_P1;SDS_P2;PMS_P1;PMS_P2;Temp;Humidity;BMP_temperature;BMP_pressure;BME280_temperature;BME280_humidity;BME280_pressure;Samples;Min_cycle;Max_cycle;Signal;HPM_P1;HPM_P2
2022/11/14 00:01:09;;;;;;;11.00;6.63;;;;;;;;;;5033270;28;20631;-68
2022/11/14 00:03:35;;;;;;;10.17;7.07;;;;;;;;;;5032999;28;20183;-69
2022/11/14 00:06:05;;;;;;;10.20;7.30;;;;;;;;;;5031598;28;20223;-69
2022/11/14 00:08:30;;;;;;;9.93;7.60;;;;;;;;;;5031732;28;20225;-68
2022/11/14 00:10:56;;;;;;;9.13;7.80;;;;;;;;;;5031713;28;20182;-68
2022/11/14 00:13:22;;;;;;;9.83;6.67;;;;;;;;;;5032858;28;20259;-69
2022/11/14 00:15:49;;;;;;;8.97;6.83;;;;;;;;;;5031697;28;20195;-69
2022/11/14 00:18:16;;;;;;;10.57;7.23;;;;;;;;;;5031659;28;20655;-69
2022/11/14 00:20:41;;;;;;;10.40;7.43;;;;;;;;;;5031570;28;20175;-69
2022/11/14 00:23:07;;;;;;;10.30;7.77;;;;;;;;;;5032795;28;20244;-69
2022/11/14 00:25:33;;;;;;;8.73;7.70;;;;;;;;;;5032791;28;20203;-69
2022/11/14 00:27:59;;;;;;;11.63;7.60;;;;;;;;;;5031507;28;20206;-69
2022/11/14 00:30:25;;;;;;;10.10;7.63;;;;;;;;;;5033331;28;20179;-69
2022/11/14 00:32:51;;;;;;;10.37;7.97;;;;;;;;;;5032771;28;20211;-69
2022/11/14 00:35:17;;;;;;;8.90;7.63;;;;;;;;;;5032884;28;20262;-69
2022/11/14 00:37:43;;;;;;;10.83;8.27;;;;;;;;;;5033242;28;20175;-69
2022/11/14 00:40:09;;;;;;;10.50;7.67;;;;;;;;;;5031779;28;20233;-69
2022/11/14 00:42:35;;;;;;;9.50;7.97;;;;;;;;;;5032904;28;20184;-69
2022/11/14 00:45:01;;;;;;;12.43;7.87;;;;;;;;;;5032835;28;20560;-69
2022/11/14 00:47:27;;;;;;;9.27;7.80;;;;;;;;;;5031398;28;20564;-69
2022/11/14 00:49:53;;;;;;;10.73;7.77;;;;;;;;;;5032538;28;20186;-69
2022/11/14 00:52:19;;;;;;;11.33;8.10;;;;;;;;;;5032664;28;20179;-69
2022/11/14 00:54:45;;;;;;;9.10;7.33;;;;;;;;;;5032614;28;20180;-70
2022/11/14 00:57:11;;;;;;;10.00;8.40;;;;;;;;;;5032545;28;20191;-69
2022/11/14 00:59:37;;;;;;;9.73;8.27;;;;;;;;;;5031627;28;20176;-69
2022/11/14 01:02:03;;;;;;;11.57;8.43;;;;;;;;;;5035148;28;20274;-69
2022/11/14 01:04:29;;;;;;;10.33;8.40;;;;;;;;;;5035178;28;20206;-69
2022/11/14 01:06:55;;;;;;;10.87;8.90;;;;;;;;;;5043922;28;20222;-69
2022/11/14 01:09:21;;;;;;;11.37;9.13;;;;;;;;;;5049201;28;20172;-69
2022/11/14 01:11:47;;;;;;;12.93;9.07;;;;;;;;;;5043620;28;20199;-66
2022/11/14 01:14:12;;;;;;;9.37;8.37;;;;;;;;;;5044675;28;20203;-70
2022/11/14 01:16:38;;;;;;;9.90;8.63;;;;;;;;;;5042302;28;20203;-69
2022/11/14 01:19:05;;;;;;;12.07;9.07;;;;;;;;;;5039308;28;20593;-68
2022/11/14 01:21:31;;;;;;;11.20;9.03;;;;;;;;;;5035439;28;20179;-69
2022/11/14 01:23:57;;;;;;;11.87;9.70;;;;;;;;;;5035882;28;20237;-69
2022/11/14 01:26:23;;;;;;;10.80;8.73;;;;;;;;;;5035834;28;20199;-69
2022/11/14 01:28:49;;;;;;;11.03;9.30;;;;;;;;;;5035713;28;20593;-68
2022/11/14 01:31:16;;;;;;;10.83;9.43;;;;;;;;;;5034232;28;20211;-68
2022/11/14 01:33:42;;;;;;;11.83;9.30;;;;;;;;;;5035706;28;20253;-69
2022/11/14 01:36:08;;;;;;;11.07;8.87;;;;;;;;;;5035736;28;20191;-68
2022/11/14 01:38:34;;;;;;;12.27;9.17;;;;;;;;;;5035320;28;20225;-68
2022/11/14 01:41:00;;;;;;;10.30;9.13;;;;;;;;;;5035890;28;20254;-69
2022/11/14 01:43:28;;;;;;;12.67;9.80;;;;;;;;;;5035291;28;20665;-68
2022/11/14 01:45:59;;;;;;;12.43;9.37;;;;;;;;;;5035444;28;20205;-67
2022/11/14 01:48:28;;;;;;;13.20;9.43;;;;;;;;;;5035044;28;20183;-68
2022/11/14 01:50:59;;;;;;;12.00;9.70;;;;;;;;;;5033843;28;20205;-69
2022/11/14 01:53:25;;;;;;;11.87;9.73;;;;;;;;;;5033591;28;20328;-68
2022/11/14 01:55:52;;;;;;;11.70;9.87;;;;;;;;;;5033608;28;20671;-68
2022/11/14 01:58:18;;;;;;;13.73;10.17;;;;;;;;;;5033529;28;20182;-69
2022/11/14 02:00:44;;;;;;;14.60;10.87;;;;;;;;;;5034870;28;20229;-68
2022/11/14 02:03:12;;;;;;;17.40;10.93;;;;;;;;;;5034770;28;20279;-68
2022/11/14 02:05:39;;;;;;;17.73;10.60;;;;;;;;;;5034613;28;20590;-68
2022/11/14 02:08:05;;;;;;;14.57;10.57;;;;;;;;;;5033470;28;20188;-68
2022/11/14 02:10:31;;;;;;;14.87;11.23;;;;;;;;;;5034816;28;20186;-67
2022/11/14 02:12:57;;;;;;;14.93;11.47;;;;;;;;;;5035608;28;20199;-68
2022/11/14 02:15:24;;;;;;;13.80;10.87;;;;;;;;;;5043632;28;20198;-67
2022/11/14 02:17:50;;;;;;;14.57;11.20;;;;;;;;;;5042273;28;20557;-67
2022/11/14 02:20:20;;;;;;;16.20;11.33;;;;;;;;;;5046258;28;20186;-69
2022/11/14 02:22:46;;;;;;;13.27;10.47;;;;;;;;;;5046177;28;20210;-68
2022/11/14 02:25:14;;;;;;;12.60;10.73;;;;;;;;;;5044306;28;20203;-68
2022/11/14 02:27:41;;;;;;;15.70;11.57;;;;;;;;;;5035138;28;20182;-68
2022/11/14 02:30:08;;;;;;;12.70;11.40;;;;;;;;;;5034664;28;20228;-68
2022/11/14 02:32:34;;;;;;;16.20;11.17;;;;;;;;;;5034589;28;20210;-67
2022/11/14 02:35:00;;;;;;;14.27;11.77;;;;;;;;;;5035088;28;20175;-68
2022/11/14 02:37:26;;;;;;;13.97;12.47;;;;;;;;;;5033384;28;20321;-68
2022/11/14 02:39:52;;;;;;;14.83;12.43;;;;;;;;;;5034386;28;20182;-68
2022/11/14 02:42:18;;;;;;;15.17;12.30;;;;;;;;;;5034126;28;20171;-68
2022/11/14 02:44:44;;;;;;;14.97;12.50;;;;;;;;;;5034003;28;20179;-69
2022/11/14 02:47:10;;;;;;;14.87;13.07;;;;;;;;;;5034838;28;20663;-68
2022/11/14 02:49:36;;;;;;;18.27;13.60;;;;;;;;;;5033796;28;20674;-68
2022/11/14 02:52:02;;;;;;;14.37;12.87;;;;;;;;;;5032400;28;20187;-68
2022/11/14 02:54:28;;;;;;;14.20;12.70;;;;;;;;;;5032493;28;20238;-68
2022/11/14 02:56:54;;;;;;;13.67;12.27;;;;;;;;;;5034413;28;20648;-68
2022/11/14 02:59:19;;;;;;;17.37;12.93;;;;;;;;;;5034323;28;20179;-68
2022/11/14 03:01:45;;;;;;;14.67;12.77;;;;;;;;;;5033876;28;20229;-68
2022/11/14 03:04:11;;;;;;;15.77;13.70;;;;;;;;;;5032266;28;20187;-67
2022/11/14 03:06:37;;;;;;;15.47;12.33;;;;;;;;;;5033665;28;20591;-69
2022/11/14 03:09:03;;;;;;;14.27;12.50;;;;;;;;;;5033751;28;20262;-67
2022/11/14 03:11:30;;;;;;;18.17;12.83;;;;;;;;;;5033603;28;20618;-68
2022/11/14 03:13:56;;;;;;;15.23;12.23;;;;;;;;;;5033409;28;20257;-67
2022/11/14 03:16:22;;;;;;;15.10;12.60;;;;;;;;;;5033347;28;20199;-68
2022/11/14 03:18:48;;;;;;;14.00;12.50;;;;;;;;;;5032120;28;20663;-68
2022/11/14 03:21:15;;;;;;;14.73;11.70;;;;;;;;;;5031968;28;20365;-68
2022/11/14 03:23:41;;;;;;;15.33;12.40;;;;;;;;;;5033697;28;20205;-68
2022/11/14 03:26:08;;;;;;;16.70;12.00;;;;;;;;;;5033807;28;20702;-68
2022/11/14 03:28:34;;;;;;;24.27;12.33;;;;;;;;;;5033298;28;20269;-69
2022/11/14 03:31:00;;;;;;;15.00;11.77;;;;;;;;;;5032022;28;20214;-67
2022/11/14 03:33:26;;;;;;;13.43;12.10;;;;;;;;;;5033942;28;20280;-68
2022/11/14 03:35:52;;;;;;;13.63;12.00;;;;;;;;;;5033465;28;20191;-68
2022/11/14 03:38:21;;;;;;;15.87;11.97;;;;;;;;;;5032329;28;20554;-66
2022/11/14 03:40:48;;;;;;;18.37;13.03;;;;;;;;;;5033452;28;20210;-67
2022/11/14 03:43:14;;;;;;;13.33;11.93;;;;;;;;;;5033608;28;20179;-68
2022/11/14 03:45:39;;;;;;;14.97;12.13;;;;;;;;;;5032556;28;20260;-68
2022/11/14 03:48:06;;;;;;;13.80;12.00;;;;;;;;;;5033681;28;20266;-68
2022/11/14 03:50:32;;;;;;;15.97;12.83;;;;;;;;;;5033459;28;20190;-68
2022/11/14 03:52:58;;;;;;;16.77;13.57;;;;;;;;;;5033231;28;20325;-67
2022/11/14 03:55:24;;;;;;;18.37;13.87;;;;;;;;;;5033038;28;20207;-68
2022/11/14 03:57:50;;;;;;;15.27;12.67;;;;;;;;;;5033967;28;20305;-67
2022/11/14 04:00:16;;;;;;;17.20;14.00;;;;;;;;;;5034198;28;20181;-68
2022/11/14 04:02:42;;;;;;;17.73;13.60;;;;;;;;;;5034175;28;20214;-67
2022/11/14 04:05:08;;;;;;;18.37;14.17;;;;;;;;;;5033208;28;20191;-68
2022/11/14 04:07:34;;;;;;;15.93;13.23;;;;;;;;;;5033710;28;20182;-68
2022/11/14 04:10:00;;;;;;;16.10;14.20;;;;;;;;;;5033863;28;20175;-68
2022/11/14 04:12:26;;;;;;;16.70;13.73;;;;;;;;;;5034040;28;20215;-69
2022/11/14 04:14:52;;;;;;;17.83;14.73;;;;;;;;;;5033675;28;20175;-68
2022/11/14 04:17:18;;;;;;;17.17;14.43;;;;;;;;;;5032141;28;20265;-68
2022/11/14 04:19:44;;;;;;;17.57;13.73;;;;;;;;;;5033923;28;20228;-68
2022/11/14 04:22:10;;;;;;;17.03;15.13;;;;;;;;;;5033141;28;20179;-68
2022/11/14 04:24:36;;;;;;;19.60;14.23;;;;;;;;;;5032878;28;20179;-68
2022/11/14 04:27:01;;;;;;;17.50;13.73;;;;;;;;;;5033399;28;20198;-68
2022/11/14 04:29:28;;;;;;;19.37;14.37;;;;;;;;;;5034027;28;20221;-68
2022/11/14 04:31:53;;;;;;;15.80;13.67;;;;;;;;;;5033380;28;20172;-68
2022/11/14 04:34:19;;;;;;;17.67;14.13;;;;;;;;;;5031874;28;20210;-67
2022/11/14 04:36:45;;;;;;;16.33;13.03;;;;;;;;;;5037543;28;20209;-68
2022/11/14 04:39:11;;;;;;;15.57;12.87;;;;;;;;;;5037045;28;20211;-67
2022/11/14 04:41:37;;;;;;;21.90;16.47;;;;;;;;;;5037368;28;20182;-68
2022/11/14 04:44:03;;;;;;;15.53;13.03;;;;;;;;;;5036947;28;20183;-68
2022/11/14 04:46:29;;;;;;;16.83;13.23;;;;;;;;;;5037060;28;20269;-67
2022/11/14 04:48:55;;;;;;;15.17;13.27;;;;;;;;;;5037779;28;20559;-68
2022/11/14 04:51:21;;;;;;;14.83;12.40;;;;;;;;;;5037035;28;20284;-68
2022/11/14 04:53:47;;;;;;;14.27;12.77;;;;;;;;;;5035451;28;20207;-68
2022/11/14 04:56:13;;;;;;;16.67;13.33;;;;;;;;;;5036553;28;20195;-68
2022/11/14 04:58:39;;;;;;;13.67;12.17;;;;;;;;;;5036854;28;20179;-68
2022/11/14 05:01:08;;;;;;;16.77;12.63;;;;;;;;;;5035424;28;20206;-67
2022/11/14 05:03:34;;;;;;;17.20;13.60;;;;;;;;;;5036137;28;20179;-68
2022/11/14 05:06:01;;;;;;;17.43;13.83;;;;;;;;;;5034516;28;20240;-67
2022/11/14 05:08:27;;;;;;;16.20;12.50;;;;;;;;;;5036105;28;20183;-67
2022/11/14 05:10:53;;;;;;;16.40;13.20;;;;;;;;;;5035936;28;20181;-68
2022/11/14 05:13:19;;;;;;;24.47;14.10;;;;;;;;;;5035839;28;20306;-68
2022/11/14 05:15:45;;;;;;;17.37;14.97;;;;;;;;;;5034350;28;20205;-68
2022/11/14 05:18:11;;;;;;;17.20;13.43;;;;;;;;;;5035977;28;20553;-68
2022/11/14 05:20:37;;;;;;;16.07;12.13;;;;;;;;;;5034618;28;20175;-68
2022/11/14 05:23:03;;;;;;;15.33;12.23;;;;;;;;;;5036026;28;20183;-68
2022/11/14 05:25:28;;;;;;;14.37;12.83;;;;;;;;;;5035811;28;20199;-68
2022/11/14 05:27:55;;;;;;;15.37;13.77;;;;;;;;;;5035568;28;20179;-68
2022/11/14 05:30:21;;;;;;;17.43;13.50;;;;;;;;;;5034270;28;20274;-68
2022/11/14 05:32:47;;;;;;;15.63;12.63;;;;;;;;;;5035859;28;20348;-68
2022/11/14 05:35:13;;;;;;;15.33;13.47;;;;;;;;;;5035591;28;20171;-68
2022/11/14 05:37:39;;;;;;;18.13;14.03;;;;;;;;;;5035717;28;20207;-68
2022/11/14 05:40:05;;;;;;;15.90;13.50;;;;;;;;;;5036135;28;20175;-68
2022/11/14 05:42:31;;;;;;;15.80;13.53;;;;;;;;;;5035690;28;20721;-68
2022/11/14 05:44:57;;;;;;;15.17;13.20;;;;;;;;;;5034158;28;20214;-68
2022/11/14 05:47:23;;;;;;;18.80;14.63;;;;;;;;;;5035329;28;20265;-68
2022/11/14 05:49:49;;;;;;;16.63;13.57;;;;;;;;;;5035963;28;20194;-68
2022/11/14 05:52:15;;;;;;;16.50;14.53;;;;;;;;;;5035440;28;20185;-68
2022/11/14 05:54:41;;;;;;;19.23;14.70;;;;;;;;;;5035309;28;20202;-68
2022/11/14 05:57:07;;;;;;;16.43;14.73;;;;;;;;;;5035266;28;20603;-68
2022/11/14 05:59:33;;;;;;;16.93;14.70;;;;;;;;;;5034976;28;20594;-68
2022/11/14 06:01:59;;;;;;;15.97;14.27;;;;;;;;;;5034933;28;20202;-68
2022/11/14 06:04:26;;;;;;;17.67;13.17;;;;;;;;;;5035357;28;20184;-68
2022/11/14 06:06:52;;;;;;;18.80;14.77;;;;;;;;;;5035065;28;20238;-68
2022/11/14 06:09:18;;;;;;;16.73;14.13;;;;;;;;;;5034925;28;20607;-68
2022/11/14 06:11:44;;;;;;;25.00;14.77;;;;;;;;;;5033589;28;20250;-68
2022/11/14 06:14:09;;;;;;;21.67;14.27;;;;;;;;;;5034801;28;20214;-68
2022/11/14 06:16:35;;;;;;;22.80;14.83;;;;;;;;;;5033428;28;20378;-69
2022/11/14 06:19:01;;;;;;;23.63;15.30;;;;;;;;;;5035012;28;20651;-68
2022/11/14 06:21:27;;;;;;;22.07;14.87;;;;;;;;;;5032993;28;20179;-68
2022/11/14 06:23:53;;;;;;;20.03;14.07;;;;;;;;;;5034448;28;20182;-68
2022/11/14 06:26:23;;;;;;;21.40;14.60;;;;;;;;;;5034239;28;20199;-69
2022/11/14 06:28:50;;;;;;;17.23;13.83;;;;;;;;;;5035253;28;20190;-69
2022/11/14 06:31:17;;;;;;;22.00;14.30;;;;;;;;;;5034464;28;20234;-68
2022/11/14 06:33:43;;;;;;;20.73;14.67;;;;;;;;;;5033405;28;20211;-69
2022/11/14 06:36:09;;;;;;;25.40;15.10;;;;;;;;;;5032887;28;20210;-68
2022/11/14 06:38:36;;;;;;;24.03;15.40;;;;;;;;;;5033058;28;20179;-68
2022/11/14 06:41:02;;;;;;;23.07;15.50;;;;;;;;;;5033764;28;20179;-69
2022/11/14 06:43:28;;;;;;;21.83;15.57;;;;;;;;;;5032827;28;20713;-69
2022/11/14 06:45:54;;;;;;;21.17;15.83;;;;;;;;;;5033961;28;20206;-69
2022/11/14 06:48:20;;;;;;;23.80;16.50;;;;;;;;;;5032726;28;20278;-69
2022/11/14 06:50:57;;;;;;;27.00;17.07;;;;;;;;;;5034215;28;20215;-69
2022/11/14 06:53:23;;;;;;;30.87;14.37;;;;;;;;;;5032678;28;20259;-69
2022/11/14 06:55:59;;;;;;;19.27;14.40;;;;;;;;;;5032566;28;20314;-69
2022/11/14 06:58:29;;;;;;;21.33;14.27;;;;;;;;;;5033362;28;20178;-70
2022/11/14 07:00:55;;;;;;;23.03;14.23;;;;;;;;;;5034098;28;20170;-68
2022/11/14 07:03:22;;;;;;;21.93;14.53;;;;;;;;;;5034353;28;20537;-70
2022/11/14 07:05:48;;;;;;;20.07;14.60;;;;;;;;;;5032392;28;20592;-69
2022/11/14 07:08:14;;;;;;;23.80;14.83;;;;;;;;;;5034022;28;20381;-68
2022/11/14 07:10:40;;;;;;;22.93;14.43;;;;;;;;;;5033146;28;20535;-69
2022/11/14 07:13:08;;;;;;;22.57;14.63;;;;;;;;;;5033545;28;20257;-69
2022/11/14 07:15:34;;;;;;;26.30;15.93;;;;;;;;;;5032320;28;20237;-69
2022/11/14 07:18:00;;;;;;;26.30;17.47;;;;;;;;;;5033867;28;20171;-68
2022/11/14 07:20:26;;;;;;;23.87;17.30;;;;;;;;;;5032505;28;20194;-69
2022/11/14 07:22:52;;;;;;;29.87;19.33;;;;;;;;;;5033275;28;20214;-69
2022/11/14 07:25:19;;;;;;;28.73;20.17;;;;;;;;;;5033455;28;20203;-69
2022/11/14 07:27:45;;;;;;;30.67;23.13;;;;;;;;;;5033560;28;20190;-68
2022/11/14 07:30:12;;;;;;;36.27;22.37;;;;;;;;;;5033515;28;20185;-69
2022/11/14 07:32:38;;;;;;;43.60;24.07;;;;;;;;;;5033559;28;20203;-70
2022/11/14 07:35:04;;;;;;;39.17;24.20;;;;;;;;;;5033381;28;20229;-69
2022/11/14 07:37:30;;;;;;;38.77;21.63;;;;;;;;;;5033235;28;20541;-69
2022/11/14 07:39:55;;;;;;;36.77;23.00;;;;;;;;;;5033289;28;20179;-69
2022/11/14 07:42:21;;;;;;;36.20;25.80;;;;;;;;;;5033421;28;20179;-69
2022/11/14 07:44:47;;;;;;;39.50;25.10;;;;;;;;;;5033424;28;20209;-70
2022/11/14 07:47:13;;;;;;;34.90;25.00;;;;;;;;;;5031686;28;20241;-68
2022/11/14 07:49:39;;;;;;;35.93;21.63;;;;;;;;;;5033201;28;20182;-68
2022/11/14 07:52:06;;;;;;;26.53;17.77;;;;;;;;;;5064198;22;20237;-63
2022/11/14 07:54:32;;;;;;;23.07;16.27;;;;;;;;;;5034823;28;20205;-64
2022/11/14 07:56:57;;;;;;;18.73;13.77;;;;;;;;;;5034680;28;20178;-65
2022/11/14 07:59:23;;;;;;;15.27;12.40;;;;;;;;;;5016553;28;20229;-66
2022/11/14 08:01:49;;;;;;;16.60;11.90;;;;;;;;;;5015562;28;20207;-64
2022/11/14 08:04:15;;;;;;;13.00;10.77;;;;;;;;;;5015375;28;20541;-65
2022/11/14 08:06:41;;;;;;;12.50;10.10;;;;;;;;;;5033011;28;20561;-65
2022/11/14 08:09:07;;;;;;;13.10;9.80;;;;;;;;;;5034056;28;20190;-65
2022/11/14 08:11:48;;;;;;;12.63;10.30;;;;;;;;;;5036938;28;20248;-65
2022/11/14 08:14:15;;;;;;;12.97;10.67;;;;;;;;;;5019308;28;20187;-65
2022/11/14 08:16:41;;;;;;;13.70;11.33;;;;;;;;;;5019215;28;20175;-66
2022/11/14 08:19:07;;;;;;;16.63;11.70;;;;;;;;;;5036967;28;20179;-65
2022/11/14 08:21:33;;;;;;;12.20;10.90;;;;;;;;;;5036993;28;20661;-66
2022/11/14 08:23:59;;;;;;;13.27;11.47;;;;;;;;;;5037070;28;20190;-65
2022/11/14 08:26:25;;;;;;;13.33;11.77;;;;;;;;;;5037639;28;20187;-65
2022/11/14 08:28:53;;;;;;;15.07;11.20;;;;;;;;;;5036801;28;20183;-66
2022/11/14 08:31:19;;;;;;;15.13;12.30;;;;;;;;;;5037207;28;20218;-67
2022/11/14 08:33:45;;;;;;;15.47;11.93;;;;;;;;;;5036772;28;20664;-66
2022/11/14 08:36:11;;;;;;;15.90;11.87;;;;;;;;;;5036803;28;20183;-65
2022/11/14 08:38:37;;;;;;;17.33;13.30;;;;;;;;;;5037128;28;20201;-66
2022/11/14 08:41:04;;;;;;;26.73;14.67;;;;;;;;;;5036476;28;20175;-66
2022/11/14 08:43:31;;;;;;;17.77;13.90;;;;;;;;;;5036989;28;20190;-66
2022/11/14 08:46:00;;;;;;;18.33;14.93;;;;;;;;;;5018675;28;20282;-66
2022/11/14 08:48:26;;;;;;;19.63;15.83;;;;;;;;;;5018608;28;20190;-66
2022/11/14 08:50:53;;;;;;;23.73;15.87;;;;;;;;;;5036169;28;20183;-65
2022/11/14 08:53:19;;;;;;;23.07;16.27;;;;;;;;;;5036544;28;20572;-65
2022/11/14 08:55:48;;;;;;;25.23;18.23;;;;;;;;;;5036518;28;20183;-68
2022/11/14 08:58:14;;;;;;;23.70;17.57;;;;;;;;;;5036218;28;20262;-66
2022/11/14 09:00:40;;;;;;;22.47;16.73;;;;;;;;;;5018310;28;20186;-65
2022/11/14 09:03:10;;;;;;;24.57;17.73;;;;;;;;;;5035951;28;20198;-67
2022/11/14 09:05:37;;;;;;;24.47;17.23;;;;;;;;;;5036126;28;20229;-66
2022/11/14 09:08:03;;;;;;;25.30;17.50;;;;;;;;;;5018353;28;20183;-67
2022/11/14 09:10:29;;;;;;;22.10;16.13;;;;;;;;;;5035934;28;20179;-65
2022/11/14 09:12:56;;;;;;;24.80;18.47;;;;;;;;;;5018079;28;20679;-65
2022/11/14 09:15:22;;;;;;;25.37;17.30;;;;;;;;;;5035845;28;20183;-64
2022/11/14 09:17:47;;;;;;;27.20;16.80;;;;;;;;;;5035889;28;20186;-64
2022/11/14 09:20:14;;;;;;;23.10;16.00;;;;;;;;;;5035420;28;20258;-67
2022/11/14 09:22:40;;;;;;;24.73;18.13;;;;;;;;;;5017646;28;20206;-65
2022/11/14 09:25:06;;;;;;;22.43;16.90;;;;;;;;;;5035714;28;20233;-64
2022/11/14 09:27:32;;;;;;;25.80;17.40;;;;;;;;;;5036256;28;20179;-66
2022/11/14 09:29:58;;;;;;;21.67;16.50;;;;;;;;;;5017824;28;20205;-65
2022/11/14 09:32:24;;;;;;;24.53;16.03;;;;;;;;;;5035919;28;20540;-66
2022/11/14 09:34:50;;;;;;;23.43;16.37;;;;;;;;;;5017643;28;20627;-66
2022/11/14 09:37:16;;;;;;;23.97;17.10;;;;;;;;;;5035615;28;20202;-67
2022/11/14 09:39:41;;;;;;;25.63;19.83;;;;;;;;;;5035606;28;20179;-67
2022/11/14 09:42:16;;;;;;;24.40;17.87;;;;;;;;;;5035332;28;20298;-64
2022/11/14 09:45:08;;;;;;;23.87;17.80;;;;;;;;;;5035484;28;20174;-67
2022/11/14 09:47:41;;;;;;;23.80;17.23;;;;;;;;;;5032361;28;20203;-68
2022/11/14 09:50:15;;;;;;;26.83;17.17;;;;;;;;;;5018108;28;20211;-67
2022/11/14 09:52:45;;;;;;;26.23;18.57;;;;;;;;;;5017713;28;20308;-67
2022/11/14 09:55:17;;;;;;;26.57;18.10;;;;;;;;;;5017974;28;20551;-66
2022/11/14 09:57:45;;;;;;;22.77;17.73;;;;;;;;;;5017816;28;20224;-66
2022/11/14 10:00:15;;;;;;;25.00;18.43;;;;;;;;;;5035042;28;20184;-67
2022/11/14 10:02:51;;;;;;;24.47;18.63;;;;;;;;;;5034972;28;20195;-66
2022/11/14 10:05:20;;;;;;;23.97;18.07;;;;;;;;;;5017253;28;20174;-65
2022/11/14 10:07:53;;;;;;;26.60;19.43;;;;;;;;;;5034869;28;20179;-65
2022/11/14 10:10:31;;;;;;;33.73;21.73;;;;;;;;;;5017089;28;20174;-65
2022/11/14 10:13:02;;;;;;;32.77;21.70;;;;;;;;;;5034797;28;20221;-64
2022/11/14 10:15:33;;;;;;;52.20;29.70;;;;;;;;;;5016988;28;20176;-65
2022/11/14 10:18:18;;;;;;;36.93;23.90;;;;;;;;;;5016964;28;20285;-65
2022/11/14 10:20:53;;;;;;;32.63;22.30;;;;;;;;;;5016839;28;20245;-66
2022/11/14 10:23:27;;;;;;;36.83;24.80;;;;;;;;;;5034748;28;20284;-64
2022/11/14 10:26:09;;;;;;;44.43;33.30;;;;;;;;;;5034838;28;20175;-65
2022/11/14 10:28:51;;;;;;;38.53;30.30;;;;;;;;;;5034707;28;20163;-66
2022/11/14 10:31:24;;;;;;;28.60;22.13;;;;;;;;;;5016678;28;20300;-65
2022/11/14 10:33:56;;;;;;;31.60;25.43;;;;;;;;;;5033229;28;20213;-64
2022/11/14 10:36:28;;;;;;;28.67;23.27;;;;;;;;;;5016629;28;20182;-65
2022/11/14 10:39:10;;;;;;;25.50;19.40;;;;;;;;;;5016450;28;20217;-66
2022/11/14 10:41:37;;;;;;;21.53;15.03;;;;;;;;;;5034537;28;20201;-65
2022/11/14 10:44:04;;;;;;;20.93;15.47;;;;;;;;;;5016563;28;20241;-64
2022/11/14 10:46:32;;;;;;;19.27;14.53;;;;;;;;;;5034249;28;20666;-66
2022/11/14 10:48:59;;;;;;;21.30;13.97;;;;;;;;;;5016393;28;20179;-67
2022/11/14 10:51:31;;;;;;;19.50;13.17;;;;;;;;;;5034147;28;20302;-66
2022/11/14 10:54:00;;;;;;;15.13;12.37;;;;;;;;;;5034318;28;20202;-65
2022/11/14 10:56:26;;;;;;;14.97;10.30;;;;;;;;;;5034023;28;20203;-64
2022/11/14 10:58:51;;;;;;;13.37;10.70;;;;;;;;;;5016365;28;20221;-66
2022/11/14 11:01:36;;;;;;;13.00;9.97;;;;;;;;;;5034122;28;20195;-66
2022/11/14 11:04:13;;;;;;;10.03;7.63;;;;;;;;;;5034551;28;20265;-66
2022/11/14 11:06:39;;;;;;;12.23;7.80;;;;;;;;;;5034265;28;20186;-66
2022/11/14 11:12:00;;;;;;;10.50;7.73;;;;;;;;;;5034619;28;20210;-66
2022/11/14 11:14:26;;;;;;;9.73;8.00;;;;;;;;;;5034145;28;20222;-65
2022/11/14 11:17:10;;;;;;;10.73;7.83;;;;;;;;;;5034347;28;20183;-65
2022/11/14 11:19:37;;;;;;;9.30;8.03;;;;;;;;;;5034270;28;20239;-65
2022/11/14 11:22:03;;;;;;;8.97;7.30;;;;;;;;;;5016374;28;20194;-66
2022/11/14 11:24:30;;;;;;;10.87;8.10;;;;;;;;;;5016501;28;20563;-64
2022/11/14 11:27:11;;;;;;;10.23;8.00;;;;;;;;;;5034173;28;20671;-64
2022/11/14 11:29:37;;;;;;;9.87;8.07;;;;;;;;;;5033781;28;20172;-66
2022/11/14 11:32:03;;;;;;;10.87;9.10;;;;;;;;;;5033696;28;20706;-65
2022/11/14 11:34:33;;;;;;;22.60;13.10;;;;;;;;;;5033926;28;20218;-65
2022/11/14 11:37:08;;;;;;;13.60;9.53;;;;;;;;;;5034035;28;20602;-65
2022/11/14 11:39:37;;;;;;;18.97;12.33;;;;;;;;;;5033648;28;20658;-65
2022/11/14 11:42:07;;;;;;;24.63;15.63;;;;;;;;;;5033625;28;20638;-65
2022/11/14 11:44:36;;;;;;;18.33;13.77;;;;;;;;;;5033206;28;20183;-66
2022/11/14 11:47:03;;;;;;;15.67;10.60;;;;;;;;;;5015435;28;20187;-66
2022/11/14 11:49:29;;;;;;;24.53;15.47;;;;;;;;;;5033032;28;20187;-63
2022/11/14 11:51:56;;;;;;;14.50;11.13;;;;;;;;;;5032904;28;20222;-65
2022/11/14 11:54:29;;;;;;;10.47;8.97;;;;;;;;;;5033174;28;20227;-65
2022/11/14 11:56:59;;;;;;;11.17;9.27;;;;;;;;;;5033444;28;20171;-64
2022/11/14 11:59:34;;;;;;;10.87;8.83;;;;;;;;;;5015916;28;20616;-66
2022/11/14 12:02:03;;;;;;;11.23;8.57;;;;;;;;;;5032908;28;20187;-65
2022/11/14 12:04:30;;;;;;;11.70;9.67;;;;;;;;;;5032950;28;20254;-64
2022/11/14 12:07:04;;;;;;;13.60;10.60;;;;;;;;;;5032939;28;20197;-65
2022/11/14 12:09:36;;;;;;;12.90;10.67;;;;;;;;;;5032894;28;20202;-66
2022/11/14 12:12:04;;;;;;;19.50;12.20;;;;;;;;;;5015132;28;20206;-64
2022/11/14 12:14:30;;;;;;;18.57;12.60;;;;;;;;;;5032727;28;20659;-66
2022/11/14 12:17:16;;;;;;;15.70;12.17;;;;;;;;;;5032906;28;20183;-64
2022/11/14 12:19:49;;;;;;;16.53;12.07;;;;;;;;;;4985578;28;20228;-65
2022/11/14 12:22:33;;;;;;;18.03;11.67;;;;;;;;;;5032765;28;20198;-65
2022/11/14 12:25:18;;;;;;;16.53;12.03;;;;;;;;;;5033081;28;20701;-65
2022/11/14 12:27:53;;;;;;;15.97;11.87;;;;;;;;;;5032861;28;20202;-66
2022/11/14 12:30:21;;;;;;;18.53;13.83;;;;;;;;;;5015127;28;20171;-66
2022/11/14 12:32:49;;;;;;;17.57;13.13;;;;;;;;;;5014896;28;20683;-65
2022/11/14 12:35:19;;;;;;;16.47;12.90;;;;;;;;;;5014919;28;20202;-65
2022/11/14 12:37:46;;;;;;;14.50;11.97;;;;;;;;;;5014850;28;20175;-65
2022/11/14 12:40:18;;;;;;;18.07;12.90;;;;;;;;;;5032606;28;20178;-65
2022/11/14 12:42:48;;;;;;;15.57;12.83;;;;;;;;;;5015184;28;20199;-65
2022/11/14 12:45:32;;;;;;;16.00;12.87;;;;;;;;;;5014717;28;20179;-64
2022/11/14 12:48:17;;;;;;;16.20;12.83;;;;;;;;;;5032720;28;20254;-64
2022/11/14 12:50:43;;;;;;;14.60;12.13;;;;;;;;;;5032478;28;20178;-65
2022/11/14 12:53:34;;;;;;;16.53;12.57;;;;;;;;;;5014411;28;20214;-65
2022/11/14 12:56:18;;;;;;;15.17;12.80;;;;;;;;;;5015486;28;20179;-65
2022/11/14 12:59:03;;;;;;;15.43;11.97;;;;;;;;;;5036152;28;20262;-64
2022/11/14 13:01:29;;;;;;;15.30;12.40;;;;;;;;;;5036158;28;20688;-65
2022/11/14 13:04:13;;;;;;;13.40;11.57;;;;;;;;;;5036473;28;20187;-66
2022/11/14 13:06:52;;;;;;;13.87;11.87;;;;;;;;;;5036114;28;20187;-65
2022/11/14 13:09:21;;;;;;;14.90;12.13;;;;;;;;;;5036642;28;20513;-65
2022/11/14 13:23:24;;;;;;;16.23;11.57;;;;;;;;;;5035885;28;20734;-65
2022/11/14 13:26:09;;;;;;;15.00;11.20;;;;;;;;;;5035625;28;20183;-65
2022/11/14 13:28:38;;;;;;;13.87;11.40;;;;;;;;;;5035539;28;20174;-66
2022/11/14 13:31:16;;;;;;;15.53;11.97;;;;;;;;;;5035515;28;20182;-66
2022/11/14 13:33:42;;;;;;;12.83;11.10;;;;;;;;;;5017839;28;20584;-65
2022/11/14 13:36:16;;;;;;;14.57;11.93;;;;;;;;;;5017752;28;20176;-65
2022/11/14 13:38:41;;;;;;;15.13;11.13;;;;;;;;;;5035692;28;20598;-65
2022/11/14 13:41:20;;;;;;;14.43;11.40;;;;;;;;;;5017486;28;20202;-65
2022/11/14 13:44:13;;;;;;;15.27;11.40;;;;;;;;;;5035601;28;20183;-65
2022/11/14 13:46:57;;;;;;;11.87;10.57;;;;;;;;;;5035317;28;20172;-65
2022/11/14 13:49:32;;;;;;;13.10;10.77;;;;;;;;;;5017431;28;20183;-66
2022/11/14 13:51:58;;;;;;;12.97;10.40;;;;;;;;;;5035087;28;20221;-65
2022/11/14 13:54:24;;;;;;;14.30;10.57;;;;;;;;;;5017209;28;20223;-66
2022/11/14 13:57:11;;;;;;;14.30;10.73;;;;;;;;;;5024237;23;20275;-69
2022/11/14 13:59:37;;;;;;;12.20;10.03;;;;;;;;;;4995920;28;20196;-69
2022/11/14 14:02:26;;;;;;;14.83;11.47;;;;;;;;;;4994178;28;20606;-67
2022/11/14 14:05:10;;;;;;;13.97;11.10;;;;;;;;;;4976437;28;20274;-69
2022/11/14 14:07:49;;;;;;;15.03;11.73;;;;;;;;;;4993902;28;20201;-67
2022/11/14 14:10:27;;;;;;;15.27;12.80;;;;;;;;;;4995446;28;20212;-69
2022/11/14 14:13:02;;;;;;;14.03;11.10;;;;;;;;;;4995343;28;20216;-68
2022/11/14 14:15:37;;;;;;;14.87;12.73;;;;;;;;;;4994134;28;20207;-68
2022/11/14 14:18:22;;;;;;;19.10;13.53;;;;;;;;;;4995398;28;20207;-68
2022/11/14 14:20:58;;;;;;;18.83;14.67;;;;;;;;;;4995617;28;20231;-67
2022/11/14 14:23:35;;;;;;;18.73;15.17;;;;;;;;;;4995256;28;20188;-68
2022/11/14 14:26:23;;;;;;;18.87;15.33;;;;;;;;;;4995271;28;20271;-68
2022/11/14 14:28:55;;;;;;;21.73;16.70;;;;;;;;;;4995122;28;20172;-68
2022/11/14 14:31:24;;;;;;;18.13;15.63;;;;;;;;;;4995313;28;20172;-68
2022/11/14 14:33:51;;;;;;;14.37;11.67;;;;;;;;;;4993655;28;20673;-68
2022/11/14 14:36:17;;;;;;;16.57;12.60;;;;;;;;;;4993628;28;20191;-68
2022/11/14 14:38:43;;;;;;;17.83;12.83;;;;;;;;;;4995520;28;20176;-67
2022/11/14 14:41:10;;;;;;;15.37;11.20;;;;;;;;;;4994985;28;20637;-68
2022/11/14 14:43:36;;;;;;;17.07;13.40;;;;;;;;;;4995799;28;20701;-69